KTMT

Austin Airport

Austin, Nevada, USA
METAR KTMT 211955Z AUTO 10005KT 10SM CLR 00/M09 A3027 RMK AO2 T00041095
Observed Flight Rules
Jan-21 @ 19:55 UTC (25 minutes ago) Visual Flight Rules
Wind Visibility Clouds
100° at 5 knots 10 miles
  • Clear skies
Temperatures Readings
Current 0°C / 32°F
Dewpoint -10°C / 14°F
Humidity 47%
Altimeter 30.27" Hg
Pressure 1025 hPa
Elevation 1748
METAR KTMT 211955Z AUTO 10005KT 10SM CLR 00/M09 A3027 RMK AO2 T00041095
Observed Flight Rules
Jan-21 @ 19:55 UTC
(25 minutes ago)
VFR
Wind Visibility
100° at 5 knots 10 miles
Clouds
  • Clear skies
Temperature Dewpoint
0°C / 32°F -10°C / 14°F
Humidity Altimeter Pressure
47% 30.27" Hg 1025 hPa